sensor_id;sensor_type;location;lat;lon;timestamp;P1;durP1;ratioP1;P2;durP2;ratioP2
33148;SDS011;19506;51.040;3.856;2022-12-20T00:03:18;1.95;;;1.38;;
33148;SDS011;19506;51.040;3.856;2022-12-20T00:08:10;2.13;;;1.75;;
33148;SDS011;19506;51.040;3.856;2022-12-20T00:10:36;3.72;;;1.80;;
33148;SDS011;19506;51.040;3.856;2022-12-20T00:13:03;1.98;;;1.38;;
33148;SDS011;19506;51.040;3.856;2022-12-20T00:15:29;2.97;;;1.70;;
33148;SDS011;19506;51.040;3.856;2022-12-20T00:17:56;3.10;;;2.20;;
33148;SDS011;19506;51.040;3.856;2022-12-20T00:20:22;4.75;;;1.80;;
33148;SDS011;19506;51.040;3.856;2022-12-20T00:22:48;2.75;;;1.58;;
33148;SDS011;19506;51.040;3.856;2022-12-20T00:27:39;3.50;;;1.75;;
33148;SDS011;19506;51.040;3.856;2022-12-20T00:30:05;2.38;;;1.88;;
33148;SDS011;19506;51.040;3.856;2022-12-20T00:32:31;3.05;;;1.88;;
33148;SDS011;19506;51.040;3.856;2022-12-20T00:37:22;2.30;;;1.50;;
33148;SDS011;19506;51.040;3.856;2022-12-20T00:39:48;1.95;;;1.75;;
33148;SDS011;19506;51.040;3.856;2022-12-20T00:42:13;2.42;;;1.70;;
33148;SDS011;19506;51.040;3.856;2022-12-20T00:44:39;1.67;;;1.58;;
33148;SDS011;19506;51.040;3.856;2022-12-20T00:49:31;3.13;;;1.83;;
33148;SDS011;19506;51.040;3.856;2022-12-20T00:54:22;2.80;;;1.67;;
33148;SDS011;19506;51.040;3.856;2022-12-20T00:59:14;1.88;;;1.52;;
33148;SDS011;19506;51.040;3.856;2022-12-20T01:01:39;3.58;;;1.55;;
33148;SDS011;19506;51.040;3.856;2022-12-20T01:06:31;1.75;;;1.30;;
33148;SDS011;19506;51.040;3.856;2022-12-20T01:08:57;2.20;;;1.83;;
33148;SDS011;19506;51.040;3.856;2022-12-20T01:11:24;2.17;;;1.88;;
33148;SDS011;19506;51.040;3.856;2022-12-20T01:13:52;1.65;;;1.55;;
33148;SDS011;19506;51.040;3.856;2022-12-20T01:16:21;2.65;;;1.70;;
33148;SDS011;19506;51.040;3.856;2022-12-20T01:18:52;2.03;;;1.40;;
33148;SDS011;19506;51.040;3.856;2022-12-20T01:21:19;1.52;;;1.40;;
33148;SDS011;19506;51.040;3.856;2022-12-20T01:23:46;1.83;;;1.48;;
33148;SDS011;19506;51.040;3.856;2022-12-20T01:26:13;4.47;;;1.67;;
33148;SDS011;19506;51.040;3.856;2022-12-20T01:28:41;3.97;;;1.33;;
33148;SDS011;19506;51.040;3.856;2022-12-20T01:31:09;2.80;;;1.30;;
33148;SDS011;19506;51.040;3.856;2022-12-20T01:33:37;2.00;;;1.58;;
33148;SDS011;19506;51.040;3.856;2022-12-20T01:40:56;2.15;;;1.52;;
33148;SDS011;19506;51.040;3.856;2022-12-20T01:43:22;1.92;;;1.50;;
33148;SDS011;19506;51.040;3.856;2022-12-20T01:45:49;3.90;;;1.60;;
33148;SDS011;19506;51.040;3.856;2022-12-20T01:50:44;3.25;;;1.75;;
33148;SDS011;19506;51.040;3.856;2022-12-20T01:53:11;3.35;;;1.60;;
33148;SDS011;19506;51.040;3.856;2022-12-20T01:58:03;2.60;;;1.27;;
33148;SDS011;19506;51.040;3.856;2022-12-20T02:00:31;1.85;;;1.63;;
33148;SDS011;19506;51.040;3.856;2022-12-20T02:05:32;3.65;;;1.42;;
33148;SDS011;19506;51.040;3.856;2022-12-20T02:08:03;2.80;;;1.65;;
33148;SDS011;19506;51.040;3.856;2022-12-20T02:10:34;2.75;;;1.75;;
33148;SDS011;19506;51.040;3.856;2022-12-20T02:13:06;2.28;;;1.55;;
33148;SDS011;19506;51.040;3.856;2022-12-20T02:15:46;1.30;;;1.20;;
33148;SDS011;19506;51.040;3.856;2022-12-20T02:18:39;2.53;;;1.50;;
33148;SDS011;19506;51.040;3.856;2022-12-20T02:23:59;3.95;;;1.42;;
33148;SDS011;19506;51.040;3.856;2022-12-20T02:32:50;1.23;;;1.17;;
33148;SDS011;19506;51.040;3.856;2022-12-20T02:35:32;1.63;;;1.38;;
33148;SDS011;19506;51.040;3.856;2022-12-20T02:38:02;2.13;;;1.52;;
33148;SDS011;19506;51.040;3.856;2022-12-20T02:40:34;1.92;;;1.45;;
33148;SDS011;19506;51.040;3.856;2022-12-20T02:43:04;3.17;;;1.40;;
33148;SDS011;19506;51.040;3.856;2022-12-20T02:45:52;1.75;;;1.40;;
33148;SDS011;19506;51.040;3.856;2022-12-20T02:48:21;2.45;;;1.13;;
33148;SDS011;19506;51.040;3.856;2022-12-20T02:50:50;1.80;;;1.33;;
33148;SDS011;19506;51.040;3.856;2022-12-20T02:53:18;1.67;;;1.25;;
33148;SDS011;19506;51.040;3.856;2022-12-20T02:58:45;2.13;;;1.20;;
33148;SDS011;19506;51.040;3.856;2022-12-20T03:01:40;4.28;;;1.15;;
33148;SDS011;19506;51.040;3.856;2022-12-20T03:04:16;1.70;;;1.27;;
33148;SDS011;19506;51.040;3.856;2022-12-20T03:06:59;3.63;;;1.20;;
33148;SDS011;19506;51.040;3.856;2022-12-20T03:09:28;1.52;;;1.30;;
33148;SDS011;19506;51.040;3.856;2022-12-20T03:11:55;1.88;;;1.58;;
33148;SDS011;19506;51.040;3.856;2022-12-20T03:16:47;1.30;;;1.20;;
33148;SDS011;19506;51.040;3.856;2022-12-20T03:19:12;1.63;;;1.30;;
33148;SDS011;19506;51.040;3.856;2022-12-20T03:24:04;2.33;;;1.70;;
33148;SDS011;19506;51.040;3.856;2022-12-20T03:26:30;2.53;;;1.42;;
33148;SDS011;19506;51.040;3.856;2022-12-20T03:31:21;3.00;;;1.38;;
33148;SDS011;19506;51.040;3.856;2022-12-20T03:33:47;3.25;;;1.40;;
33148;SDS011;19506;51.040;3.856;2022-12-20T03:38:38;1.60;;;1.30;;
33148;SDS011;19506;51.040;3.856;2022-12-20T03:41:04;1.67;;;1.25;;
33148;SDS011;19506;51.040;3.856;2022-12-20T03:43:30;2.83;;;1.35;;
33148;SDS011;19506;51.040;3.856;2022-12-20T03:48:21;1.30;;;1.02;;
33148;SDS011;19506;51.040;3.856;2022-12-20T03:53:12;1.63;;;1.25;;
33148;SDS011;19506;51.040;3.856;2022-12-20T03:55:37;1.65;;;1.00;;
33148;SDS011;19506;51.040;3.856;2022-12-20T03:58:03;2.08;;;1.35;;
33148;SDS011;19506;51.040;3.856;2022-12-20T04:02:54;1.50;;;1.38;;
33148;SDS011;19506;51.040;3.856;2022-12-20T04:07:45;1.23;;;1.13;;
33148;SDS011;19506;51.040;3.856;2022-12-20T04:12:37;1.35;;;1.25;;
33148;SDS011;19506;51.040;3.856;2022-12-20T04:15:02;0.80;;;0.80;;
33148;SDS011;19506;51.040;3.856;2022-12-20T04:19:54;1.02;;;1.00;;
33148;SDS011;19506;51.040;3.856;2022-12-20T04:22:19;2.25;;;1.35;;
33148;SDS011;19506;51.040;3.856;2022-12-20T04:27:10;1.55;;;1.45;;
33148;SDS011;19506;51.040;3.856;2022-12-20T04:29:36;2.22;;;1.75;;
33148;SDS011;19506;51.040;3.856;2022-12-20T04:32:02;1.20;;;1.10;;
33148;SDS011;19506;51.040;3.856;2022-12-20T04:34:28;2.58;;;1.52;;
33148;SDS011;19506;51.040;3.856;2022-12-20T04:39:19;1.70;;;1.30;;
33148;SDS011;19506;51.040;3.856;2022-12-20T04:44:10;1.17;;;0.98;;
33148;SDS011;19506;51.040;3.856;2022-12-20T04:46:35;1.33;;;1.23;;
33148;SDS011;19506;51.040;3.856;2022-12-20T04:49:02;1.20;;;1.10;;
33148;SDS011;19506;51.040;3.856;2022-12-20T04:53:53;1.83;;;1.40;;
33148;SDS011;19506;51.040;3.856;2022-12-20T04:56:20;1.50;;;1.23;;
33148;SDS011;19506;51.040;3.856;2022-12-20T04:58:53;1.48;;;1.30;;
33148;SDS011;19506;51.040;3.856;2022-12-20T05:01:21;1.33;;;1.10;;
33148;SDS011;19506;51.040;3.856;2022-12-20T05:06:13;1.30;;;1.00;;
33148;SDS011;19506;51.040;3.856;2022-12-20T05:08:39;1.67;;;1.02;;
33148;SDS011;19506;51.040;3.856;2022-12-20T05:13:31;2.38;;;1.42;;
33148;SDS011;19506;51.040;3.856;2022-12-20T05:15:57;1.23;;;1.13;;
33148;SDS011;19506;51.040;3.856;2022-12-20T05:20:49;1.45;;;1.10;;
33148;SDS011;19506;51.040;3.856;2022-12-20T05:23:34;1.55;;;1.23;;
33148;SDS011;19506;51.040;3.856;2022-12-20T05:26:19;1.08;;;1.00;;
33148;SDS011;19506;51.040;3.856;2022-12-20T05:28:45;4.10;;;1.15;;
33148;SDS011;19506;51.040;3.856;2022-12-20T05:33:36;1.33;;;1.17;;
33148;SDS011;19506;51.040;3.856;2022-12-20T05:36:02;1.63;;;1.20;;
33148;SDS011;19506;51.040;3.856;2022-12-20T05:38:28;2.55;;;1.20;;
33148;SDS011;19506;51.040;3.856;2022-12-20T05:40:54;1.20;;;1.10;;
33148;SDS011;19506;51.040;3.856;2022-12-20T05:45:46;2.10;;;1.17;;
33148;SDS011;19506;51.040;3.856;2022-12-20T05:48:13;1.30;;;1.20;;
33148;SDS011;19506;51.040;3.856;2022-12-20T05:50:40;1.42;;;1.33;;
33148;SDS011;19506;51.040;3.856;2022-12-20T05:53:08;1.40;;;1.20;;
33148;SDS011;19506;51.040;3.856;2022-12-20T05:55:37;1.65;;;1.02;;
33148;SDS011;19506;51.040;3.856;2022-12-20T05:58:11;0.90;;;0.90;;
33148;SDS011;19506;51.040;3.856;2022-12-20T06:00:38;1.13;;;1.00;;
33148;SDS011;19506;51.040;3.856;2022-12-20T06:03:07;1.85;;;1.40;;
33148;SDS011;19506;51.040;3.856;2022-12-20T06:05:35;1.30;;;1.08;;
33148;SDS011;19506;51.040;3.856;2022-12-20T06:08:02;1.00;;;0.90;;
33148;SDS011;19506;51.040;3.856;2022-12-20T06:10:29;1.38;;;1.23;;
33148;SDS011;19506;51.040;3.856;2022-12-20T06:12:55;1.58;;;1.05;;
33148;SDS011;19506;51.040;3.856;2022-12-20T06:17:46;1.10;;;1.00;;
33148;SDS011;19506;51.040;3.856;2022-12-20T06:20:12;3.42;;;1.30;;
33148;SDS011;19506;51.040;3.856;2022-12-20T06:25:04;1.37;;;1.20;;
33148;SDS011;19506;51.040;3.856;2022-12-20T06:27:33;1.20;;;1.10;;
33148;SDS011;19506;51.040;3.856;2022-12-20T06:29:59;4.68;;;1.55;;
33148;SDS011;19506;51.040;3.856;2022-12-20T06:34:50;2.15;;;1.13;;
33148;SDS011;19506;51.040;3.856;2022-12-20T06:39:41;2.00;;;1.00;;
33148;SDS011;19506;51.040;3.856;2022-12-20T06:42:07;1.35;;;1.00;;
33148;SDS011;19506;51.040;3.856;2022-12-20T06:44:32;2.30;;;1.30;;
33148;SDS011;19506;51.040;3.856;2022-12-20T06:49:24;3.17;;;1.20;;
33148;SDS011;19506;51.040;3.856;2022-12-20T06:51:49;2.35;;;1.15;;
33148;SDS011;19506;51.040;3.856;2022-12-20T06:54:15;3.30;;;1.40;;
33148;SDS011;19506;51.040;3.856;2022-12-20T06:56:43;4.10;;;1.70;;
33148;SDS011;19506;51.040;3.856;2022-12-20T07:01:35;6.10;;;1.70;;
33148;SDS011;19506;51.040;3.856;2022-12-20T07:06:26;7.28;;;1.85;;
33148;SDS011;19506;51.040;3.856;2022-12-20T07:08:53;7.25;;;2.03;;
33148;SDS011;19506;51.040;3.856;2022-12-20T07:11:19;4.90;;;2.13;;
33148;SDS011;19506;51.040;3.856;2022-12-20T07:16:11;8.70;;;2.63;;
33148;SDS011;19506;51.040;3.856;2022-12-20T07:18:37;7.85;;;3.50;;
33148;SDS011;19506;51.040;3.856;2022-12-20T07:23:29;4.40;;;2.33;;
33148;SDS011;19506;51.040;3.856;2022-12-20T07:25:55;5.90;;;2.30;;
33148;SDS011;19506;51.040;3.856;2022-12-20T07:28:22;6.97;;;2.55;;
33148;SDS011;19506;51.040;3.856;2022-12-20T07:30:48;3.35;;;1.90;;
33148;SDS011;19506;51.040;3.856;2022-12-20T07:35:40;4.95;;;2.53;;
33148;SDS011;19506;51.040;3.856;2022-12-20T07:38:05;5.40;;;1.77;;
33148;SDS011;19506;51.040;3.856;2022-12-20T07:42:57;6.97;;;2.10;;
33148;SDS011;19506;51.040;3.856;2022-12-20T07:45:22;3.90;;;2.10;;
33148;SDS011;19506;51.040;3.856;2022-12-20T07:47:48;4.72;;;2.63;;
33148;SDS011;19506;51.040;3.856;2022-12-20T07:52:39;5.80;;;2.25;;
33148;SDS011;19506;51.040;3.856;2022-12-20T07:55:08;5.80;;;2.25;;
33148;SDS011;19506;51.040;3.856;2022-12-20T07:57:36;7.60;;;2.92;;
33148;SDS011;19506;51.040;3.856;2022-12-20T08:00:07;7.95;;;2.75;;
33148;SDS011;19506;51.040;3.856;2022-12-20T08:02:34;13.40;;;2.50;;
33148;SDS011;19506;51.040;3.856;2022-12-20T08:05:04;7.38;;;2.50;;
33148;SDS011;19506;51.040;3.856;2022-12-20T08:07:33;6.50;;;2.75;;
33148;SDS011;19506;51.040;3.856;2022-12-20T08:10:01;10.02;;;2.35;;
33148;SDS011;19506;51.040;3.856;2022-12-20T08:12:28;4.47;;;2.03;;
33148;SDS011;19506;51.040;3.856;2022-12-20T08:14:56;7.05;;;2.17;;
33148;SDS011;19506;51.040;3.856;2022-12-20T08:17:22;4.45;;;1.92;;
33148;SDS011;19506;51.040;3.856;2022-12-20T08:22:16;8.23;;;2.63;;
33148;SDS011;19506;51.040;3.856;2022-12-20T08:24:43;6.07;;;2.38;;
33148;SDS011;19506;51.040;3.856;2022-12-20T08:29:34;4.90;;;1.98;;
33148;SDS011;19506;51.040;3.856;2022-12-20T08:32:00;6.88;;;2.63;;
33148;SDS011;19506;51.040;3.856;2022-12-20T08:36:51;6.28;;;2.63;;
33148;SDS011;19506;51.040;3.856;2022-12-20T08:39:17;6.00;;;1.85;;
33148;SDS011;19506;51.040;3.856;2022-12-20T08:41:43;5.30;;;2.35;;
33148;SDS011;19506;51.040;3.856;2022-12-20T08:44:08;5.22;;;2.25;;
33148;SDS011;19506;51.040;3.856;2022-12-20T08:46:34;8.02;;;2.78;;
33148;SDS011;19506;51.040;3.856;2022-12-20T08:49:01;5.53;;;2.45;;
33148;SDS011;19506;51.040;3.856;2022-12-20T08:51:30;5.43;;;2.10;;
33148;SDS011;19506;51.040;3.856;2022-12-20T08:53:56;4.15;;;2.22;;
33148;SDS011;19506;51.040;3.856;2022-12-20T08:58:47;6.10;;;2.53;;
33148;SDS011;19506;51.040;3.856;2022-12-20T09:01:14;9.27;;;2.90;;
33148;SDS011;19506;51.040;3.856;2022-12-20T09:03:42;7.65;;;2.78;;
33148;SDS011;19506;51.040;3.856;2022-12-20T09:06:15;5.90;;;2.20;;
33148;SDS011;19506;51.040;3.856;2022-12-20T09:08:43;7.32;;;2.10;;
33148;SDS011;19506;51.040;3.856;2022-12-20T09:11:20;4.13;;;2.17;;
33148;SDS011;19506;51.040;3.856;2022-12-20T09:13:51;8.75;;;2.72;;
33148;SDS011;19506;51.040;3.856;2022-12-20T09:16:19;5.43;;;3.13;;
33148;SDS011;19506;51.040;3.856;2022-12-20T09:18:47;4.97;;;2.17;;
33148;SDS011;19506;51.040;3.856;2022-12-20T09:21:17;4.40;;;1.70;;
33148;SDS011;19506;51.040;3.856;2022-12-20T09:23:43;6.22;;;2.17;;
33148;SDS011;19506;51.040;3.856;2022-12-20T09:26:11;5.45;;;1.95;;
33148;SDS011;19506;51.040;3.856;2022-12-20T09:28:39;3.78;;;1.92;;
33148;SDS011;19506;51.040;3.856;2022-12-20T09:31:06;4.10;;;2.15;;
33148;SDS011;19506;51.040;3.856;2022-12-20T09:33:34;3.30;;;1.85;;
33148;SDS011;19506;51.040;3.856;2022-12-20T09:38:26;6.35;;;2.50;;
33148;SDS011;19506;51.040;3.856;2022-12-20T09:40:54;4.32;;;1.90;;
33148;SDS011;19506;51.040;3.856;2022-12-20T09:43:22;7.10;;;2.45;;
33148;SDS011;19506;51.040;3.856;2022-12-20T09:45:53;4.28;;;2.03;;
33148;SDS011;19506;51.040;3.856;2022-12-20T09:48:22;4.63;;;2.25;;
33148;SDS011;19506;51.040;3.856;2022-12-20T09:51:02;5.97;;;2.55;;
33148;SDS011;19506;51.040;3.856;2022-12-20T09:56:31;3.22;;;1.65;;
33148;SDS011;19506;51.040;3.856;2022-12-20T09:59:12;5.97;;;2.30;;
33148;SDS011;19506;51.040;3.856;2022-12-20T10:01:42;7.40;;;1.80;;
33148;SDS011;19506;51.040;3.856;2022-12-20T10:04:23;7.07;;;2.42;;
33148;SDS011;19506;51.040;3.856;2022-12-20T10:09:50;3.92;;;1.70;;
33148;SDS011;19506;51.040;3.856;2022-12-20T10:12:58;7.18;;;1.98;;
33148;SDS011;19506;51.040;3.856;2022-12-20T10:16:21;3.78;;;1.77;;
33148;SDS011;19506;51.040;3.856;2022-12-20T10:21:20;3.35;;;1.80;;
33148;SDS011;19506;51.040;3.856;2022-12-20T10:24:15;3.75;;;1.80;;
33148;SDS011;19506;51.040;3.856;2022-12-20T10:26:43;3.63;;;2.03;;
33148;SDS011;19506;51.040;3.856;2022-12-20T10:29:13;4.03;;;1.83;;
33148;SDS011;19506;51.040;3.856;2022-12-20T10:34:04;2.47;;;1.65;;
33148;SDS011;19506;51.040;3.856;2022-12-20T10:36:32;3.42;;;1.83;;
33148;SDS011;19506;51.040;3.856;2022-12-20T10:39:01;6.25;;;2.35;;
33148;SDS011;19506;51.040;3.856;2022-12-20T10:41:32;8.07;;;2.10;;
33148;SDS011;19506;51.040;3.856;2022-12-20T10:46:48;3.10;;;1.60;;
33148;SDS011;19506;51.040;3.856;2022-12-20T10:49:28;4.57;;;2.50;;
33148;SDS011;19506;51.040;3.856;2022-12-20T10:51:56;3.92;;;2.28;;
33148;SDS011;19506;51.040;3.856;2022-12-20T10:54:42;4.47;;;1.88;;
33148;SDS011;19506;51.040;3.856;2022-12-20T10:59:43;4.30;;;2.10;;
33148;SDS011;19506;51.040;3.856;2022-12-20T11:05:41;3.28;;;1.40;;
33148;SDS011;19506;51.040;3.856;2022-12-20T11:10:30;5.13;;;2.10;;
33148;SDS011;19506;51.040;3.856;2022-12-20T11:12:57;2.05;;;1.20;;
33148;SDS011;19506;51.040;3.856;2022-12-20T11:15:25;2.90;;;1.80;;
33148;SDS011;19506;51.040;3.856;2022-12-20T11:18:00;2.92;;;1.67;;
33148;SDS011;19506;51.040;3.856;2022-12-20T11:20:43;4.38;;;2.33;;
33148;SDS011;19506;51.040;3.856;2022-12-20T11:37:22;3.78;;;2.30;;
33148;SDS011;19506;51.040;3.856;2022-12-20T11:53:39;17.05;;;3.33;;
33148;SDS011;19506;51.040;3.856;2022-12-20T11:56:15;19.50;;;3.60;;
33148;SDS011;19506;51.040;3.856;2022-12-20T12:01:25;17.08;;;3.40;;
33148;SDS011;19506;51.040;3.856;2022-12-20T12:04:36;20.17;;;4.15;;
33148;SDS011;19506;51.040;3.856;2022-12-20T12:07:18;19.90;;;3.58;;
33148;SDS011;19506;51.040;3.856;2022-12-20T12:09:54;20.50;;;4.45;;
33148;SDS011;19506;51.040;3.856;2022-12-20T12:12:36;21.90;;;5.53;;
33148;SDS011;19506;51.040;3.856;2022-12-20T12:28:03;21.40;;;4.68;;
33148;SDS011;19506;51.040;3.856;2022-12-20T12:30:34;26.52;;;4.55;;
33148;SDS011;19506;51.040;3.856;2022-12-20T12:33:05;22.42;;;4.43;;
33148;SDS011;19506;51.040;3.856;2022-12-20T12:35:49;24.00;;;5.20;;
33148;SDS011;19506;51.040;3.856;2022-12-20T12:38:49;23.38;;;5.25;;
33148;SDS011;19506;51.040;3.856;2022-12-20T12:46:16;18.63;;;6.05;;
33148;SDS011;19506;51.040;3.856;2022-12-20T12:48:54;23.25;;;6.22;;
33148;SDS011;19506;51.040;3.856;2022-12-20T12:51:24;17.20;;;4.30;;
33148;SDS011;19506;51.040;3.856;2022-12-20T12:57:11;23.58;;;5.10;;
33148;SDS011;19506;51.040;3.856;2022-12-20T12:59:40;24.42;;;5.20;;
33148;SDS011;19506;51.040;3.856;2022-12-20T13:04:53;13.15;;;3.28;;
33148;SDS011;19506;51.040;3.856;2022-12-20T13:10:19;15.52;;;3.60;;
33148;SDS011;19506;51.040;3.856;2022-12-20T13:12:57;18.05;;;3.47;;
33148;SDS011;19506;51.040;3.856;2022-12-20T13:20:41;11.05;;;2.40;;
33148;SDS011;19506;51.040;3.856;2022-12-20T13:30:47;17.77;;;3.70;;
33148;SDS011;19506;51.040;3.856;2022-12-20T13:43:54;12.75;;;4.07;;
33148;SDS011;19506;51.040;3.856;2022-12-20T13:46:41;14.05;;;3.67;;
33148;SDS011;19506;51.040;3.856;2022-12-20T13:49:28;7.28;;;3.28;;
33148;SDS011;19506;51.040;3.856;2022-12-20T13:54:35;14.52;;;4.40;;
33148;SDS011;19506;51.040;3.856;2022-12-20T13:57:06;19.73;;;3.90;;
33148;SDS011;19506;51.040;3.856;2022-12-20T13:59:33;18.45;;;4.05;;
33148;SDS011;19506;51.040;3.856;2022-12-20T14:04:27;12.52;;;3.83;;
33148;SDS011;19506;51.040;3.856;2022-12-20T14:07:07;12.38;;;4.80;;
33148;SDS011;19506;51.040;3.856;2022-12-20T14:09:37;17.33;;;5.15;;
33148;SDS011;19506;51.040;3.856;2022-12-20T14:12:11;11.35;;;3.75;;
33148;SDS011;19506;51.040;3.856;2022-12-20T14:14:42;8.15;;;3.78;;
33148;SDS011;19506;51.040;3.856;2022-12-20T14:19:41;9.20;;;3.53;;
33148;SDS011;19506;51.040;3.856;2022-12-20T14:22:10;13.02;;;4.43;;
33148;SDS011;19506;51.040;3.856;2022-12-20T14:24:40;17.95;;;3.90;;
33148;SDS011;19506;51.040;3.856;2022-12-20T14:27:10;14.48;;;4.00;;
33148;SDS011;19506;51.040;3.856;2022-12-20T14:29:37;7.78;;;3.65;;
33148;SDS011;19506;51.040;3.856;2022-12-20T14:32:04;11.32;;;4.35;;
33148;SDS011;19506;51.040;3.856;2022-12-20T14:42:35;8.57;;;3.67;;
33148;SDS011;19506;51.040;3.856;2022-12-20T14:45:03;7.40;;;3.30;;
33148;SDS011;19506;51.040;3.856;2022-12-20T14:47:34;16.73;;;3.80;;
33148;SDS011;19506;51.040;3.856;2022-12-20T14:50:05;15.55;;;4.10;;
33148;SDS011;19506;51.040;3.856;2022-12-20T14:52:46;6.75;;;2.85;;
33148;SDS011;19506;51.040;3.856;2022-12-20T14:57:49;8.27;;;2.97;;
33148;SDS011;19506;51.040;3.856;2022-12-20T15:15:44;7.28;;;3.75;;
33148;SDS011;19506;51.040;3.856;2022-12-20T15:18:11;8.23;;;3.47;;
33148;SDS011;19506;51.040;3.856;2022-12-20T15:20:39;12.25;;;4.10;;
33148;SDS011;19506;51.040;3.856;2022-12-20T15:23:15;9.80;;;3.20;;
33148;SDS011;19506;51.040;3.856;2022-12-20T15:25:43;16.65;;;3.53;;
33148;SDS011;19506;51.040;3.856;2022-12-20T15:28:20;11.82;;;3.50;;
33148;SDS011;19506;51.040;3.856;2022-12-20T15:30:48;10.68;;;3.75;;
33148;SDS011;19506;51.040;3.856;2022-12-20T15:33:22;12.50;;;3.50;;
33148;SDS011;19506;51.040;3.856;2022-12-20T15:35:50;10.75;;;3.50;;
33148;SDS011;19506;51.040;3.856;2022-12-20T15:38:20;11.40;;;2.97;;
33148;SDS011;19506;51.040;3.856;2022-12-20T15:40:49;5.65;;;3.17;;
33148;SDS011;19506;51.040;3.856;2022-12-20T15:43:18;9.88;;;4.28;;
33148;SDS011;19506;51.040;3.856;2022-12-20T15:45:47;9.45;;;4.20;;
33148;SDS011;19506;51.040;3.856;2022-12-20T15:48:15;10.30;;;3.80;;
33148;SDS011;19506;51.040;3.856;2022-12-20T15:50:44;10.50;;;3.53;;
33148;SDS011;19506;51.040;3.856;2022-12-20T15:53:16;12.90;;;5.22;;
33148;SDS011;19506;51.040;3.856;2022-12-20T15:55:46;17.65;;;5.97;;
33148;SDS011;19506;51.040;3.856;2022-12-20T15:58:13;10.80;;;4.93;;
33148;SDS011;19506;51.040;3.856;2022-12-20T16:03:16;11.40;;;4.50;;
33148;SDS011;19506;51.040;3.856;2022-12-20T16:05:47;25.05;;;5.32;;
33148;SDS011;19506;51.040;3.856;2022-12-20T16:08:13;8.50;;;4.78;;
33148;SDS011;19506;51.040;3.856;2022-12-20T16:10:40;9.45;;;5.30;;
33148;SDS011;19506;51.040;3.856;2022-12-20T16:13:11;11.68;;;4.95;;
33148;SDS011;19506;51.040;3.856;2022-12-20T16:15:39;24.45;;;4.72;;
33148;SDS011;19506;51.040;3.856;2022-12-20T16:20:30;17.42;;;5.47;;
33148;SDS011;19506;51.040;3.856;2022-12-20T16:22:56;14.77;;;4.82;;
33148;SDS011;19506;51.040;3.856;2022-12-20T16:25:26;13.38;;;4.90;;
33148;SDS011;19506;51.040;3.856;2022-12-20T16:27:56;9.73;;;5.20;;
33148;SDS011;19506;51.040;3.856;2022-12-20T16:30:22;11.15;;;4.72;;
33148;SDS011;19506;51.040;3.856;2022-12-20T16:32:48;12.15;;;5.10;;
33148;SDS011;19506;51.040;3.856;2022-12-20T16:35:35;15.98;;;5.28;;
33148;SDS011;19506;51.040;3.856;2022-12-20T16:38:03;11.70;;;5.28;;
33148;SDS011;19506;51.040;3.856;2022-12-20T16:40:30;24.95;;;4.88;;
33148;SDS011;19506;51.040;3.856;2022-12-20T16:42:57;27.42;;;5.43;;
33148;SDS011;19506;51.040;3.856;2022-12-20T16:45:25;18.10;;;4.68;;
33148;SDS011;19506;51.040;3.856;2022-12-20T16:47:52;14.48;;;5.35;;
33148;SDS011;19506;51.040;3.856;2022-12-20T16:50:19;18.90;;;5.97;;
33148;SDS011;19506;51.040;3.856;2022-12-20T16:52:46;20.73;;;5.20;;
33148;SDS011;19506;51.040;3.856;2022-12-20T16:55:18;21.15;;;5.25;;
33148;SDS011;19506;51.040;3.856;2022-12-20T16:57:46;71.25;;;16.02;;
33148;SDS011;19506;51.040;3.856;2022-12-20T17:00:17;159.10;;;31.30;;
33148;SDS011;19506;51.040;3.856;2022-12-20T17:02:47;462.75;;;87.82;;
33148;SDS011;19506;51.040;3.856;2022-12-20T17:05:20;492.52;;;98.15;;
33148;SDS011;19506;51.040;3.856;2022-12-20T17:07:51;474.05;;;98.20;;
33148;SDS011;19506;51.040;3.856;2022-12-20T17:10:18;474.00;;;95.28;;
33148;SDS011;19506;51.040;3.856;2022-12-20T17:12:44;460.98;;;96.47;;
33148;SDS011;19506;51.040;3.856;2022-12-20T17:15:15;463.48;;;93.43;;
33148;SDS011;19506;51.040;3.856;2022-12-20T17:17:51;404.25;;;87.45;;
33148;SDS011;19506;51.040;3.856;2022-12-20T17:20:18;418.15;;;85.95;;
33148;SDS011;19506;51.040;3.856;2022-12-20T17:22:47;413.13;;;86.15;;
33148;SDS011;19506;51.040;3.856;2022-12-20T17:27:51;353.60;;;73.80;;
33148;SDS011;19506;51.040;3.856;2022-12-20T17:30:17;344.05;;;72.43;;
33148;SDS011;19506;51.040;3.856;2022-12-20T17:32:43;330.48;;;69.65;;
33148;SDS011;19506;51.040;3.856;2022-12-20T17:35:20;283.05;;;63.90;;
33148;SDS011;19506;51.040;3.856;2022-12-20T17:37:50;294.98;;;63.83;;
33148;SDS011;19506;51.040;3.856;2022-12-20T17:40:18;272.40;;;63.28;;
33148;SDS011;19506;51.040;3.856;2022-12-20T17:42:44;263.70;;;57.95;;
33148;SDS011;19506;51.040;3.856;2022-12-20T17:47:56;242.13;;;52.88;;
33148;SDS011;19506;51.040;3.856;2022-12-20T17:50:23;206.25;;;50.25;;
33148;SDS011;19506;51.040;3.856;2022-12-20T17:52:50;256.23;;;51.83;;
33148;SDS011;19506;51.040;3.856;2022-12-20T17:55:18;208.88;;;52.28;;
33148;SDS011;19506;51.040;3.856;2022-12-20T17:57:53;198.65;;;46.00;;
33148;SDS011;19506;51.040;3.856;2022-12-20T18:00:21;186.27;;;45.70;;
33148;SDS011;19506;51.040;3.856;2022-12-20T18:02:49;182.27;;;44.33;;
33148;SDS011;19506;51.040;3.856;2022-12-20T18:05:15;191.85;;;42.65;;
33148;SDS011;19506;51.040;3.856;2022-12-20T18:07:41;180.38;;;43.78;;
33148;SDS011;19506;51.040;3.856;2022-12-20T18:10:07;189.23;;;45.25;;
33148;SDS011;19506;51.040;3.856;2022-12-20T18:12:33;171.88;;;40.45;;
33148;SDS011;19506;51.040;3.856;2022-12-20T18:14:59;166.80;;;40.92;;
33148;SDS011;19506;51.040;3.856;2022-12-20T18:17:25;151.38;;;36.03;;
33148;SDS011;19506;51.040;3.856;2022-12-20T18:19:50;159.60;;;36.55;;
33148;SDS011;19506;51.040;3.856;2022-12-20T18:22:19;161.98;;;38.88;;
33148;SDS011;19506;51.040;3.856;2022-12-20T18:24:45;150.43;;;38.22;;
33148;SDS011;19506;51.040;3.856;2022-12-20T18:27:11;158.52;;;38.40;;
33148;SDS011;19506;51.040;3.856;2022-12-20T18:29:37;163.40;;;37.30;;
33148;SDS011;19506;51.040;3.856;2022-12-20T18:32:03;154.18;;;35.28;;
33148;SDS011;19506;51.040;3.856;2022-12-20T18:34:29;147.32;;;35.25;;
33148;SDS011;19506;51.040;3.856;2022-12-20T18:36:55;150.35;;;35.78;;
33148;SDS011;19506;51.040;3.856;2022-12-20T18:39:20;137.52;;;33.63;;
33148;SDS011;19506;51.040;3.856;2022-12-20T18:41:46;134.65;;;34.50;;
33148;SDS011;19506;51.040;3.856;2022-12-20T18:44:14;137.57;;;34.63;;
33148;SDS011;19506;51.040;3.856;2022-12-20T18:46:40;135.85;;;31.60;;
33148;SDS011;19506;51.040;3.856;2022-12-20T18:49:06;128.05;;;33.88;;
33148;SDS011;19506;51.040;3.856;2022-12-20T18:51:33;137.75;;;35.10;;
33148;SDS011;19506;51.040;3.856;2022-12-20T18:54:03;132.85;;;32.42;;
33148;SDS011;19506;51.040;3.856;2022-12-20T18:56:32;133.50;;;30.70;;
33148;SDS011;19506;51.040;3.856;2022-12-20T18:58:59;131.65;;;31.27;;
33148;SDS011;19506;51.040;3.856;2022-12-20T19:01:26;113.60;;;30.88;;
33148;SDS011;19506;51.040;3.856;2022-12-20T19:03:54;129.45;;;33.92;;
33148;SDS011;19506;51.040;3.856;2022-12-20T19:06:20;119.85;;;32.38;;
33148;SDS011;19506;51.040;3.856;2022-12-20T19:08:47;111.72;;;30.05;;
33148;SDS011;19506;51.040;3.856;2022-12-20T19:11:15;122.30;;;30.65;;
33148;SDS011;19506;51.040;3.856;2022-12-20T19:13:42;116.50;;;31.80;;
33148;SDS011;19506;51.040;3.856;2022-12-20T19:18:39;112.30;;;30.75;;
33148;SDS011;19506;51.040;3.856;2022-12-20T19:21:06;116.15;;;31.55;;
33148;SDS011;19506;51.040;3.856;2022-12-20T19:23:34;112.05;;;29.52;;
33148;SDS011;19506;51.040;3.856;2022-12-20T19:26:01;98.90;;;29.83;;
33148;SDS011;19506;51.040;3.856;2022-12-20T19:28:28;108.60;;;27.55;;
33148;SDS011;19506;51.040;3.856;2022-12-20T19:30:55;107.03;;;28.70;;